Aérodrome :
LOGIN :

S'inscrire | Disclaimer

   EN    FR    IT 

 










Légende :    VFR   VFR Marginal   IFR   IFR Intensif   IFR Très Intensif
Visi : 
Plafond : 
>= 8 km
>= 3000ft
5 à 8 km
1000 à 3000 ft
1500m à 5 km
500 à 1000 ft
800 à 1500m
200 à 500 ft
< 800m
< 200 ft
Symboles :   Orages  Brouillard  Fortes neiges  Fortes précipitations  Vent > 20 kt
SIGMETs :   Divers  Orages  Givrage  Turbulence  Onde Orograph.  Cendres Volcan.







- Altitude de l'aérodrome : 505 ft
- Code IATA : SXB
- Voir les cartes d'approche


LFST - Strasbourg

DERNIER METAR :
  • 260500Z AUTO 23003KT CAVOK 02/M00 Q1017 TEMPO 4000 BR

METARs EXPIRÉS :
  • 260430Z AUTO 21003KT CAVOK 02/M00 Q1017 TEMPO 4000 BR
  • 260400Z AUTO VRB02KT CAVOK 01/M00 Q1018 TEMPO 4000 BR
  • 260330Z AUTO VRB02KT CAVOK 01/M00 Q1018 TEMPO 4000 BR
  • 260300Z AUTO 22004KT CAVOK 01/M00 Q1018 TEMPO 4000 BR
  • 260230Z AUTO VRB02KT CAVOK 02/00 Q1018 TEMPO 4000 BR

TAF TAF LFST
Valide du 26 à 00h jusqu'au 27 à 00h UTC


252300Z 2600/2624 18005KT CAVOK
PROB40
TEMPO 2602/2607 4000 BR
Pas de NOTAMs connus pour ce terrain.



MET'MAP, la Météo Aéronautique d'un coup d'oeil ! - Copyright ORBIFLY Décembre 2007 - Disclaimer

ORBIFLY MET'MAP TEAM :

Programmation & Développement : Alexandra Zaïnal
Conception & Développement : Baudouin d'Aumeries
Co-Programmation & Développement : Marc-Olivier Méhu
Soutien technique & logistique : Manuel Goepfert

Contact : metmap@orbifly.com




SOURCES & CREDITS :

   NOAA